Flugplatz Hagen Hof-Wahl (UL)

Hier findest Du alle Informationen zum Flugplatz Hagen Hof-Wahl (UL).

Informationen für Piloten zum Flugplatz Hagen Hof-Wahl

Hier findest Du alle relevanten Informationen, die Du als Pilot benötigst, um Hagen Hof-Wahl anzufliegen.

Flugplatz: Hagen Hof-Wahl ICAO-Code: UL Flugplatz
Frequenz Turm: 122.725 Mhz GAFOR Gebiet: -
Frequenz Ground: 122.725 Mhz Mogas: nein
Platzrunde: S 1400 ft Landegebühr: -
Platzhöhe: Sunrise: 06:50 Uhr UTC
Pisten: 09/27 - 421 m x 15 m, GRAS Sunset: 15:40 Uhr UTC

Mitglieder, die in Hagen Hof-Wahl fliegen

Flugwetter am Flugplatz Hagen Hof-Wahl

Die METAR Information stammen aus EDLW (26.76 km entfernt).

METAR Code:
2019/11/16 21:20
EDLW 162120Z AUTO 16008KT 9999 // NCD 03/00 Q1011

Flugschulen am Flugplatz Hagen Hof-Wahl

Am Flugplatz Hagen Hof-Wahl gibt es leider keine Flugschule.

Benachbarte Flugplätze und Flugschulen

Es gibt 21 weitere Flugplätze in einem Umkreis von 50 km um den Flugplatz Hagen Hof-Wahl.

Jetzt anmelden

Passwort vergessen

Anzeige: Skymap
Umfrage Archiv

Lasst Ihr Euch bei Überlandflügen von FIS begleiten?

Ja, immer!
51.6 %
Ja, unregelmäßig!
25.8 %
Ja, aber nur selten!
22.6 %
Nein, nie!
0 %
Stimmen: 31 | Diskussion
Anzeige: Roland Aircraft
Statistik Alle Mitglieder

Aktuell sind 29 Besucher online.

Anzeige: VFR Sprechfunk Simulator


Anzeige: Pocket FMS